Time;durP1;ratioP1;P1;durP2;ratioP2;P2;SDS_P1;SDS_P2;PMS_P1;PMS_P2;Temp;Humidity;BMP_temperature;BMP_pressure;BME280_temperature;BME280_humidity;BME280_pressure;Samples;Min_cycle;Max_cycle;Signal;HPM_P1;HPM_P2
2022/07/13 00:02:28;;;;;;;0.73;0.40;;;;;;;17.44;100.00;99000.28;15278679;19;20015;-55
2022/07/13 00:07:35;;;;;;;1.45;0.35;;;;;;;17.33;100.00;98998.06;15276512;19;20027;-55
2022/07/13 00:12:40;;;;;;;4.85;0.40;;;;;;;17.27;100.00;98998.78;15267319;19;20017;-55
2022/07/13 00:17:45;;;;;;;1.98;0.35;;;;;;;17.15;100.00;98999.28;15279346;19;20015;-51
2022/07/13 00:22:53;;;;;;;1.83;0.20;;;;;;;17.09;100.00;99000.06;15277581;19;20382;-54
2022/07/13 00:27:58;;;;;;;0.73;0.40;;;;;;;17.03;100.00;98981.75;15274868;19;20020;-55
2022/07/13 00:33:03;;;;;;;0.25;0.25;;;;;;;17.02;100.00;98988.22;15276043;19;20028;-52
2022/07/13 00:38:11;;;;;;;1.15;0.30;;;;;;;17.01;100.00;98972.91;15276843;19;20033;-54
2022/07/13 00:43:16;;;;;;;0.28;0.20;;;;;;;16.98;100.00;98971.44;15263495;19;20019;-55
2022/07/13 00:48:22;;;;;;;1.85;0.30;;;;;;;16.97;100.00;98974.34;15269858;19;20389;-55
2022/07/13 00:53:30;;;;;;;0.57;0.40;;;;;;;16.97;100.00;98971.63;15275763;19;20033;-53
2022/07/13 00:58:36;;;;;;;0.57;0.35;;;;;;;16.94;100.00;98968.25;15275444;19;20023;-50
2022/07/13 01:03:41;;;;;;;0.50;0.35;;;;;;;16.92;100.00;98961.28;15275982;19;20011;-55
2022/07/13 01:08:49;;;;;;;1.33;0.40;;;;;;;16.90;100.00;98953.28;15270153;19;20471;-52
2022/07/13 01:13:54;;;;;;;0.90;0.40;;;;;;;16.85;100.00;98950.31;15273587;19;20459;-53
2022/07/13 01:19:00;;;;;;;0.80;0.40;;;;;;;16.84;100.00;98947.75;15263055;19;20015;-50
2022/07/13 01:24:09;;;;;;;0.77;0.40;;;;;;;16.83;100.00;98952.38;15271874;19;20023;-53
2022/07/13 01:29:14;;;;;;;2.38;0.43;;;;;;;16.75;100.00;98957.91;15275154;19;20471;-57
2022/07/13 01:34:20;;;;;;;3.33;0.50;;;;;;;16.71;100.00;98953.88;15271648;19;20851;-58
2022/07/13 01:39:28;;;;;;;1.45;0.40;;;;;;;16.72;100.00;98942.78;15273291;19;20014;-57
2022/07/13 01:44:33;;;;;;;1.48;0.40;;;;;;;16.70;100.00;98935.84;15267741;19;20018;-55
2022/07/13 01:49:38;;;;;;;1.02;0.40;;;;;;;16.68;100.00;98927.03;15273455;19;20014;-52
2022/07/13 01:54:46;;;;;;;1.20;0.40;;;;;;;16.67;100.00;98928.94;15282893;19;20014;-55
2022/07/13 01:59:51;;;;;;;0.38;0.35;;;;;;;16.67;100.00;98918.03;15287223;19;20442;-54
2022/07/13 02:04:57;;;;;;;2.50;0.40;;;;;;;16.69;100.00;98923.28;15279987;19;20011;-51
2022/07/13 02:10:05;;;;;;;0.95;0.43;;;;;;;16.67;100.00;98909.00;15285929;19;20010;-56
2022/07/13 02:15:13;;;;;;;0.82;0.40;;;;;;;16.66;100.00;98902.75;15279642;19;20038;-55
2022/07/13 02:20:18;;;;;;;1.38;0.45;;;;;;;16.63;100.00;98903.97;15276572;19;20018;-56
2022/07/13 02:25:26;;;;;;;0.30;0.30;;;;;;;16.61;100.00;98899.72;15282108;19;20006;-52
2022/07/13 02:30:32;;;;;;;0.95;0.50;;;;;;;16.60;100.00;98898.91;15285783;19;20006;-56
2022/07/13 02:35:37;;;;;;;0.40;0.32;;;;;;;16.57;100.00;98903.88;15284447;19;20039;-55
2022/07/13 02:40:45;;;;;;;0.80;0.40;;;;;;;16.57;100.00;98910.16;15286594;19;20054;-54
2022/07/13 02:45:50;;;;;;;1.13;0.40;;;;;;;16.59;100.00;98902.66;15278105;19;20077;-60
2022/07/13 02:50:56;;;;;;;0.45;0.30;;;;;;;16.59;100.00;98905.38;15274963;19;20039;-61
2022/07/13 03:01:46;;;;;;;0.32;0.32;;;;;;;16.56;100.00;98904.91;15284551;19;19991;-59
2022/07/13 03:06:52;;;;;;;0.60;0.40;;;;;;;16.55;100.00;98885.00;15284534;19;20359;-63
2022/07/13 03:11:58;;;;;;;0.80;0.40;;;;;;;16.55;100.00;98873.31;15278935;19;20432;-61
2022/07/13 03:17:08;;;;;;;2.92;0.60;;;;;;;16.48;100.00;98876.75;15282623;19;20374;-60
2022/07/13 03:22:14;;;;;;;1.90;0.50;;;;;;;16.45;100.00;98865.44;15286811;19;20176;-62
2022/07/13 03:27:20;;;;;;;1.25;0.50;;;;;;;16.44;100.00;98858.28;15274194;19;20019;-61
2022/07/13 03:32:28;;;;;;;0.45;0.40;;;;;;;16.45;100.00;98852.69;15284848;19;20024;-62
2022/07/13 03:37:34;;;;;;;0.47;0.40;;;;;;;16.46;100.00;98858.97;15280607;19;20022;-62
2022/07/13 03:42:40;;;;;;;3.28;0.47;;;;;;;16.46;100.00;98854.34;15285893;19;20047;-60
2022/07/13 03:53:38;;;;;;;0.73;0.50;;;;;;;16.49;100.00;98850.44;15276590;19;20026;-61
2022/07/13 03:58:44;;;;;;;1.17;0.40;;;;;;;16.53;100.00;98845.44;15268932;19;20029;-59
2022/07/13 04:03:51;;;;;;;3.20;0.40;;;;;;;16.57;100.00;98847.59;15285686;19;20076;-61
2022/07/13 04:09:01;;;;;;;0.68;0.50;;;;;;;16.60;100.00;98849.09;15274365;19;20018;-62
2022/07/13 04:14:06;;;;;;;1.15;0.43;;;;;;;16.62;100.00;98853.31;15284080;19;20043;-62
2022/07/13 04:19:14;;;;;;;0.45;0.38;;;;;;;16.68;100.00;98843.56;15276070;19;20581;-61
2022/07/13 04:24:24;;;;;;;1.27;0.40;;;;;;;16.73;100.00;98848.41;15278158;19;20482;-61
2022/07/13 04:29:31;;;;;;;1.23;0.50;;;;;;;16.77;100.00;98849.72;15265745;19;20010;-62
2022/07/13 04:34:36;;;;;;;1.08;0.50;;;;;;;16.83;100.00;98853.53;15278027;19;20025;-63
2022/07/13 04:39:44;;;;;;;0.52;0.40;;;;;;;16.89;100.00;98856.34;15275873;19;20022;-62
2022/07/13 04:44:49;;;;;;;0.47;0.30;;;;;;;16.96;100.00;98861.06;15280009;19;20465;-63
2022/07/13 04:49:55;;;;;;;1.00;0.40;;;;;;;17.03;100.00;98861.97;15273552;19;20014;-61
2022/07/13 04:55:04;;;;;;;1.30;0.45;;;;;;;17.13;100.00;98857.06;15278883;19;20030;-63
2022/07/13 05:00:11;;;;;;;3.00;0.50;;;;;;;17.21;100.00;98854.22;15267333;19;20418;-62
2022/07/13 05:05:16;;;;;;;2.53;0.40;;;;;;;17.34;100.00;98855.41;15273522;19;20039;-63
2022/07/13 05:10:24;;;;;;;0.88;0.38;;;;;;;17.43;100.00;98859.69;15276719;19;20014;-64
2022/07/13 05:15:30;;;;;;;0.45;0.40;;;;;;;17.52;100.00;98858.50;15252125;19;20003;-63
2022/07/13 05:20:42;;;;;;;0.63;0.40;;;;;;;17.61;100.00;98855.63;15279906;19;20026;-63
2022/07/13 05:25:51;;;;;;;1.10;0.50;;;;;;;17.67;100.00;98866.59;15293835;19;20032;-64
2022/07/13 05:30:56;;;;;;;1.58;0.50;;;;;;;17.74;100.00;98872.09;15294548;19;20026;-59
2022/07/13 05:36:05;;;;;;;1.17;0.40;;;;;;;17.89;100.00;98873.88;15280364;19;20033;-61
2022/07/13 05:41:13;;;;;;;1.23;0.50;;;;;;;18.00;100.00;98870.66;15290692;19;20011;-64
2022/07/13 05:46:19;;;;;;;0.60;0.50;;;;;;;18.14;100.00;98871.56;15286678;19;20014;-62
2022/07/13 05:51:25;;;;;;;0.75;0.38;;;;;;;18.21;100.00;98858.84;15287703;19;20021;-62
2022/07/13 05:56:44;;;;;;;2.53;0.63;;;;;;;18.39;100.00;98868.38;15276739;19;20019;-64
2022/07/13 06:01:49;;;;;;;1.20;0.47;;;;;;;18.54;100.00;98870.97;15290615;19;20011;-64
2022/07/13 06:06:55;;;;;;;2.03;0.50;;;;;;;18.61;100.00;98861.78;15276186;19;20082;-64
2022/07/13 06:12:02;;;;;;;3.65;0.40;;;;;;;18.78;100.00;98856.81;15288290;19;20166;-64
2022/07/13 06:17:07;;;;;;;0.77;0.43;;;;;;;18.94;100.00;98850.16;15287103;19;20018;-65
2022/07/13 06:22:12;;;;;;;0.93;0.40;;;;;;;19.07;100.00;98854.84;15287422;19;20030;-62
2022/07/13 06:27:21;;;;;;;0.85;0.38;;;;;;;19.21;100.00;98843.97;15293015;19;20923;-64
2022/07/13 06:32:26;;;;;;;0.98;0.30;;;;;;;19.35;100.00;98834.72;15285851;19;20486;-64
2022/07/13 06:37:31;;;;;;;0.63;0.30;;;;;;;19.40;100.00;98837.66;15267788;19;20134;-63
2022/07/13 06:42:53;;;;;;;0.43;0.40;;;;;;;19.50;100.00;98836.41;15278003;19;20011;-62
2022/07/13 06:47:58;;;;;;;1.38;0.40;;;;;;;19.66;100.00;98836.00;15280591;19;20014;-66
2022/07/13 06:53:04;;;;;;;4.10;0.50;;;;;;;19.79;100.00;98828.84;15286557;19;20021;-63
2022/07/13 06:58:12;;;;;;;2.28;0.40;;;;;;;20.00;100.00;98822.31;15286914;19;20017;-64
2022/07/13 07:03:18;;;;;;;3.10;0.57;;;;;;;20.21;100.00;98832.19;15285601;19;20011;-61
2022/07/13 07:08:23;;;;;;;5.55;0.60;;;;;;;20.32;100.00;98834.25;15284306;19;20018;-63
2022/07/13 07:13:32;;;;;;;0.38;0.35;;;;;;;20.45;100.00;98836.13;15277508;19;20784;-62
2022/07/13 07:18:37;;;;;;;0.98;0.38;;;;;;;20.68;100.00;98825.72;15284504;19;20014;-60
2022/07/13 07:23:58;;;;;;;0.85;0.47;;;;;;;20.82;100.00;98821.88;15285851;19;20031;-62
2022/07/13 07:29:05;;;;;;;3.65;0.50;;;;;;;20.92;100.00;98819.50;15283830;19;20014;-62
2022/07/13 07:34:10;;;;;;;0.52;0.50;;;;;;;21.02;100.00;98818.19;15287021;19;20126;-59
2022/07/13 07:39:16;;;;;;;2.85;0.32;;;;;;;21.15;100.00;98820.03;15280837;19;20688;-60
2022/07/13 07:44:23;;;;;;;0.43;0.30;;;;;;;21.39;100.00;98815.63;15273494;19;20629;-62
2022/07/13 07:49:31;;;;;;;2.85;0.52;;;;;;;21.67;100.00;98811.66;15281663;19;20018;-62
2022/07/13 07:54:42;;;;;;;3.92;0.60;;;;;;;21.86;100.00;98818.84;15283899;19;20507;-62
2022/07/13 07:59:50;;;;;;;1.48;0.50;;;;;;;22.16;100.00;98812.66;15278890;19;20014;-62
2022/07/13 08:04:55;;;;;;;2.28;0.60;;;;;;;22.56;100.00;98807.78;15284272;19;20010;-60
2022/07/13 08:10:00;;;;;;;2.78;0.52;;;;;;;22.84;97.08;98811.88;15277423;19;20038;-61
2022/07/13 08:15:10;;;;;;;5.72;0.70;;;;;;;23.16;92.46;98806.13;15269105;19;20015;-63
2022/07/13 08:20:15;;;;;;;2.47;0.50;;;;;;;23.40;92.69;98793.34;15277801;19;20038;-61
2022/07/13 08:25:26;;;;;;;5.95;0.55;;;;;;;23.69;88.61;98780.59;15282762;19;20467;-61
2022/07/13 08:30:37;;;;;;;4.40;0.40;;;;;;;23.98;81.85;98791.72;15276672;19;20010;-63
2022/07/13 08:41:00;;;;;;;2.25;0.40;;;;;;;24.50;82.74;98781.84;15276814;19;20267;-60
2022/07/13 08:46:09;;;;;;;4.13;0.50;;;;;;;24.82;74.59;98786.03;15270618;19;20103;-62
2022/07/13 08:51:15;;;;;;;2.27;0.30;;;;;;;25.08;71.81;98784.63;15274893;19;20022;-63
2022/07/13 08:56:21;;;;;;;1.27;0.25;;;;;;;25.41;67.30;98785.78;15273118;19;20689;-61
2022/07/13 09:01:28;;;;;;;3.53;0.40;;;;;;;25.52;63.90;98786.75;15280320;19;20014;-58
2022/07/13 09:06:44;;;;;;;3.15;0.40;;;;;;;25.56;62.51;98787.94;15274754;19;20078;-59
2022/07/13 09:11:49;;;;;;;0.52;0.30;;;;;;;25.60;60.03;98782.75;15281664;19;20010;-62
2022/07/13 09:16:57;;;;;;;1.80;0.38;;;;;;;25.83;59.12;98770.72;15275846;19;20010;-57
2022/07/13 09:22:12;;;;;;;24.98;1.48;;;;;;;25.95;56.97;98767.84;15268440;19;20467;-60
2022/07/13 09:27:18;;;;;;;5.00;0.25;;;;;;;26.12;54.47;98762.31;15274257;19;20025;-60
2022/07/13 09:32:25;;;;;;;2.95;0.30;;;;;;;26.17;52.82;98769.84;15277210;19;20003;-58
2022/07/13 09:37:31;;;;;;;0.35;0.20;;;;;;;26.29;56.52;98768.63;15276603;19;20014;-64
2022/07/13 09:42:37;;;;;;;3.17;0.35;;;;;;;26.39;54.49;98756.03;15278635;19;20395;-55
2022/07/13 09:47:49;;;;;;;0.93;0.20;;;;;;;26.73;47.69;98742.91;15272852;19;20039;-59
2022/07/13 09:52:55;;;;;;;1.45;0.30;;;;;;;26.97;48.46;98750.91;15268431;19;20023;-62
2022/07/13 09:58:04;;;;;;;16.70;1.20;;;;;;;27.11;47.77;98758.81;15273996;19;20389;-61
2022/07/13 10:03:14;;;;;;;2.35;0.40;;;;;;;27.10;44.29;98754.34;15278019;19;20025;-58
2022/07/13 10:08:20;;;;;;;3.13;0.40;;;;;;;27.19;42.88;98738.94;15279987;19;20471;-61
2022/07/13 10:13:26;;;;;;;9.43;0.40;;;;;;;27.30;43.58;98728.78;15292687;19;20086;-62
2022/07/13 10:18:39;;;;;;;3.60;0.38;;;;;;;27.50;41.95;98725.38;15288389;19;20018;-63
2022/07/13 10:23:45;;;;;;;0.95;0.20;;;;;;;27.64;41.19;98723.84;15281779;19;20014;-63
2022/07/13 10:29:05;;;;;;;0.52;0.10;;;;;;;27.87;40.76;98719.00;15289825;19;20554;-61
2022/07/13 10:34:14;;;;;;;0.63;0.20;;;;;;;27.93;39.23;98717.91;15288030;19;20018;-61
2022/07/13 10:39:21;;;;;;;3.25;0.20;;;;;;;28.34;40.30;98724.78;15287535;19;20017;-62
2022/07/13 10:44:40;;;;;;;4.18;0.30;;;;;;;28.51;37.42;98724.56;15291587;19;20362;-61
2022/07/13 10:49:48;;;;;;;6.60;0.63;;;;;;;28.98;36.38;98717.22;15287458;19;20022;-60
2022/07/13 10:55:23;;;;;;;39.28;1.50;;;;;;;28.76;35.90;98712.72;15285192;19;20036;-62
2022/07/13 11:00:45;;;;;;;0.98;0.20;;;;;;;28.81;36.47;98709.97;15289880;19;20007;-62
2022/07/13 11:06:08;;;;;;;6.40;0.70;;;;;;;28.78;38.26;98699.44;15287434;19;20451;-59
2022/07/13 11:11:15;;;;;;;13.98;0.65;;;;;;;28.87;38.97;98692.22;15283386;19;20026;-61
2022/07/13 11:16:48;;;;;;;3.08;0.40;;;;;;;28.74;38.82;98693.59;15285212;19;20015;-58
2022/07/13 11:22:10;;;;;;;1.75;0.22;;;;;;;28.58;38.29;98686.31;15286640;19;20549;-61
2022/07/13 11:27:23;;;;;;;0.30;0.20;;;;;;;28.66;38.95;98690.50;15279432;19;20033;-60
2022/07/13 11:32:29;;;;;;;4.90;0.63;;;;;;;28.70;39.62;98691.63;15284881;19;20014;-62
2022/07/13 11:37:39;;;;;;;2.38;0.28;;;;;;;28.83;39.33;98685.59;15283229;19;20006;-59
2022/07/13 11:42:53;;;;;;;0.40;0.30;;;;;;;28.91;38.69;98681.44;15285496;19;20015;-61
2022/07/13 11:48:02;;;;;;;8.80;0.50;;;;;;;28.91;38.73;98673.94;15284011;19;20359;-59
2022/07/13 11:53:10;;;;;;;0.28;0.17;;;;;;;28.78;38.59;98673.66;15279778;19;20030;-60
2022/07/13 11:58:23;;;;;;;13.27;1.00;;;;;;;28.76;38.83;98662.81;15280728;19;20674;-59
2022/07/13 12:03:33;;;;;;;0.38;0.20;;;;;;;28.87;39.24;98658.94;15272609;19;20025;-60
2022/07/13 12:08:44;;;;;;;0.30;0.30;;;;;;;28.95;39.33;98659.53;15277991;19;20475;-60
2022/07/13 12:13:49;;;;;;;6.22;0.60;;;;;;;29.29;40.19;98643.13;15283233;19;20045;-60
2022/07/13 12:19:08;;;;;;;6.25;0.38;;;;;;;29.86;39.58;98626.38;15280964;19;20029;-57
2022/07/13 12:24:20;;;;;;;2.03;0.40;;;;;;;30.25;38.56;98613.72;15281651;19;20367;-59
2022/07/13 12:29:29;;;;;;;0.20;0.20;;;;;;;30.34;37.31;98612.00;15280541;19;20014;-58
2022/07/13 12:34:35;;;;;;;9.80;0.60;;;;;;;30.20;36.81;98616.50;15270533;19;20038;-59
2022/07/13 12:39:43;;;;;;;21.77;1.10;;;;;;;30.12;36.75;98616.00;15275823;19;20035;-61
2022/07/13 12:44:49;;;;;;;2.55;0.30;;;;;;;29.96;35.76;98618.03;15280067;19;20349;-59
2022/07/13 12:49:54;;;;;;;8.70;0.60;;;;;;;30.11;35.59;98617.13;15276515;19;20026;-59
2022/07/13 12:55:02;;;;;;;0.80;0.20;;;;;;;30.17;35.42;98601.25;15280100;19;20081;-59
2022/07/13 13:00:11;;;;;;;2.35;0.20;;;;;;;30.13;36.02;98592.66;15276857;19;20014;-61
2022/07/13 13:05:25;;;;;;;5.53;0.38;;;;;;;30.34;36.75;98591.72;15268379;19;20082;-58
2022/07/13 13:10:33;;;;;;;12.75;0.70;;;;;;;30.63;35.52;98586.25;15278037;19;20014;-60
2022/07/13 13:15:39;;;;;;;2.90;0.30;;;;;;;30.86;35.85;98581.88;15278288;19;21319;-61
2022/07/13 13:20:44;;;;;;;2.50;0.20;;;;;;;30.78;35.96;98573.31;15272334;19;20007;-59
2022/07/13 13:25:52;;;;;;;1.45;0.40;;;;;;;30.67;36.31;98569.81;15276965;19;20018;-60
2022/07/13 13:30:57;;;;;;;2.00;0.20;;;;;;;30.37;39.11;98555.81;15274812;19;20042;-60
2022/07/13 13:36:02;;;;;;;1.65;0.30;;;;;;;30.28;38.85;98552.00;15272577;19;20023;-59
2022/07/13 13:41:10;;;;;;;4.05;0.20;;;;;;;30.47;39.29;98548.53;15273588;19;20014;-60
2022/07/13 13:46:15;;;;;;;2.38;0.20;;;;;;;30.30;40.21;98552.53;15290623;19;20027;-60
2022/07/13 13:51:20;;;;;;;8.38;0.70;;;;;;;30.20;39.40;98538.72;15285603;19;20099;-62
2022/07/13 13:56:48;;;;;;;2.97;0.30;;;;;;;30.00;38.97;98543.28;15289212;19;20026;-61
2022/07/13 14:01:53;;;;;;;2.58;0.20;;;;;;;30.40;39.25;98540.50;15290037;19;20031;-61
2022/07/13 14:06:58;;;;;;;1.25;0.38;;;;;;;30.03;40.05;98533.53;15286518;19;20666;-60
2022/07/13 14:12:11;;;;;;;2.83;0.17;;;;;;;29.93;39.94;98528.88;15271253;19;20507;-58
2022/07/13 14:17:19;;;;;;;4.28;0.25;;;;;;;29.78;40.50;98516.72;15280817;19;20025;-59
2022/07/13 14:22:24;;;;;;;10.10;0.60;;;;;;;29.64;37.44;98526.78;15283774;19;20010;-63
2022/07/13 14:27:32;;;;;;;1.75;0.30;;;;;;;29.51;36.95;98517.94;15284282;19;20002;-62
2022/07/13 14:32:37;;;;;;;1.70;0.28;;;;;;;29.65;37.14;98509.81;15282897;19;20014;-62
2022/07/13 14:37:42;;;;;;;3.85;0.32;;;;;;;30.08;36.91;98512.13;15283253;19;20046;-63
2022/07/13 14:42:49;;;;;;;2.75;0.30;;;;;;;29.78;37.50;98513.09;15270978;19;20138;-63
2022/07/13 14:47:54;;;;;;;14.05;1.27;;;;;;;29.60;37.41;98520.13;15275632;19;20023;-53
2022/07/13 14:53:08;;;;;;;3.38;0.32;;;;;;;29.48;37.43;98524.06;15274879;19;20009;-58
2022/07/13 14:58:15;;;;;;;1.90;0.30;;;;;;;29.43;38.27;98510.22;15282417;19;20010;-57
2022/07/13 15:03:21;;;;;;;3.65;0.15;;;;;;;29.42;38.53;98508.56;15281200;19;20462;-58
2022/07/13 15:08:26;;;;;;;0.88;0.30;;;;;;;29.47;39.01;98505.75;15276560;19;20018;-56
2022/07/13 15:13:33;;;;;;;3.80;0.35;;;;;;;29.32;39.91;98494.69;15267634;19;20015;-59
2022/07/13 15:18:39;;;;;;;3.30;0.15;;;;;;;29.34;39.23;98517.47;15280250;19;20332;-59
2022/07/13 15:23:44;;;;;;;8.13;0.60;;;;;;;29.27;39.25;98500.25;15277776;19;20007;-54
2022/07/13 15:28:52;;;;;;;1.27;0.20;;;;;;;29.36;39.38;98507.75;15281504;19;20014;-57
2022/07/13 15:33:58;;;;;;;2.30;0.28;;;;;;;29.37;38.74;98516.88;15278986;19;20014;-56
2022/07/13 15:39:04;;;;;;;2.35;0.40;;;;;;;29.59;37.94;98499.03;15280032;19;20014;-57
2022/07/13 15:44:14;;;;;;;3.50;0.30;;;;;;;30.04;36.99;98513.81;15276239;19;20010;-58
2022/07/13 15:49:20;;;;;;;4.10;0.50;;;;;;;29.73;37.96;98494.53;15268630;19;20541;-58
2022/07/13 15:54:25;;;;;;;6.05;0.60;;;;;;;29.31;37.82;98501.34;15278144;19;20102;-54
2022/07/13 15:59:35;;;;;;;2.85;0.30;;;;;;;29.07;38.11;98513.06;15300294;19;20033;-55
2022/07/13 16:04:41;;;;;;;2.15;0.50;;;;;;;29.32;37.77;98478.84;15277518;19;20367;-55
2022/07/13 16:09:50;;;;;;;1.40;0.30;;;;;;;29.32;37.99;98486.38;15275536;19;20017;-56
2022/07/13 16:14:58;;;;;;;5.90;0.43;;;;;;;29.16;38.22;98478.09;15275009;19;20015;-56
2022/07/13 16:20:04;;;;;;;1.55;0.30;;;;;;;28.99;38.23;98492.28;15263231;19;20030;-56
2022/07/13 16:25:10;;;;;;;4.28;0.40;;;;;;;28.82;38.63;98480.66;15273364;19;21343;-58
2022/07/13 16:30:19;;;;;;;1.73;0.40;;;;;;;28.80;39.02;98475.41;15273386;19;20010;-59
2022/07/13 16:35:25;;;;;;;1.15;0.30;;;;;;;28.88;40.22;98472.06;15275985;19;20038;-56
2022/07/13 16:40:31;;;;;;;1.88;0.50;;;;;;;28.86;39.65;98471.53;15273396;19;20565;-58
2022/07/13 16:45:39;;;;;;;1.55;0.40;;;;;;;28.69;40.24;98474.59;15275450;19;20724;-58
2022/07/13 16:50:44;;;;;;;1.58;0.30;;;;;;;28.59;40.35;98483.72;15262346;19;20011;-51
2022/07/13 16:55:49;;;;;;;3.50;0.50;;;;;;;28.52;40.55;98479.56;15275672;19;20057;-54
2022/07/13 17:00:56;;;;;;;2.00;0.40;;;;;;;28.36;39.30;98465.72;15273352;19;20034;-54
2022/07/13 17:06:02;;;;;;;0.73;0.30;;;;;;;28.24;40.32;98479.88;15273139;19;20014;-56
2022/07/13 17:11:09;;;;;;;8.77;0.50;;;;;;;28.07;40.75;98480.09;15270074;19;20018;-59
2022/07/13 17:22:00;;;;;;;4.32;0.50;;;;;;;27.89;40.37;98491.69;15274853;19;20349;-54
2022/07/13 17:27:05;;;;;;;37.55;1.98;;;;;;;27.83;40.31;98485.28;15282610;19;20022;-52
2022/07/13 17:32:12;;;;;;;14.32;0.98;;;;;;;27.79;40.88;98478.66;15285811;19;20451;-56
2022/07/13 17:37:20;;;;;;;1.02;0.40;;;;;;;27.68;40.68;98478.66;15286203;19;20379;-57
2022/07/13 17:42:25;;;;;;;1.48;0.38;;;;;;;27.64;40.95;98479.44;15283441;19;20011;-54
2022/07/13 17:47:29;;;;;;;3.03;0.40;;;;;;;27.59;41.08;98482.19;15284121;19;20743;-59
2022/07/13 17:52:37;;;;;;;0.73;0.40;;;;;;;27.51;41.55;98478.03;15283732;19;20002;-56
2022/07/13 17:57:42;;;;;;;2.85;0.45;;;;;;;27.50;41.45;98479.13;15271489;19;20051;-53
2022/07/13 18:02:48;;;;;;;3.03;0.50;;;;;;;27.48;42.08;98478.56;15285725;19;20435;-55
2022/07/13 18:07:55;;;;;;;1.20;0.30;;;;;;;27.44;41.93;98477.44;15278321;19;20014;-56
2022/07/13 18:13:01;;;;;;;1.42;0.35;;;;;;;27.32;41.97;98472.94;15281276;19;20015;-58
2022/07/13 18:18:06;;;;;;;1.52;0.40;;;;;;;27.29;42.60;98480.94;15284917;19;20362;-57
2022/07/13 18:28:36;;;;;;;0.60;0.47;;;;;;;27.20;43.69;98491.69;15269119;19;20013;-60
2022/07/13 18:33:40;;;;;;;2.15;0.60;;;;;;;27.09;44.00;98479.75;15282351;19;20018;-63
2022/07/13 18:38:50;;;;;;;2.78;0.50;;;;;;;27.03;44.30;98483.59;15284109;19;20006;-62
2022/07/13 18:43:55;;;;;;;0.77;0.45;;;;;;;26.98;44.76;98483.56;15283940;19;20014;-62
2022/07/13 18:49:00;;;;;;;5.00;0.73;;;;;;;26.94;44.45;98480.50;15281224;19;20043;-63
2022/07/13 18:54:09;;;;;;;2.42;0.40;;;;;;;26.89;44.79;98477.69;15279438;19;20027;-61
2022/07/13 18:59:16;;;;;;;2.85;0.50;;;;;;;26.79;45.56;98480.41;15270700;19;20018;-62
2022/07/13 19:04:22;;;;;;;4.10;0.50;;;;;;;26.64;46.27;98486.63;15272215;19;20022;-61
2022/07/13 19:09:30;;;;;;;1.38;0.40;;;;;;;26.63;46.63;98479.44;15280937;19;20011;-61
2022/07/13 19:14:35;;;;;;;13.35;0.90;;;;;;;26.55;47.03;98483.53;15280653;19;20010;-62
2022/07/13 19:19:40;;;;;;;8.88;0.63;;;;;;;26.46;48.34;98489.53;15277386;19;20014;-62
2022/07/13 19:30:11;;;;;;;4.72;0.47;;;;;;;26.32;49.42;98501.31;15278720;19;20709;-59
2022/07/13 19:35:16;;;;;;;7.05;0.70;;;;;;;26.19;49.93;98505.31;15270835;19;20011;-63
2022/07/13 19:40:24;;;;;;;5.43;0.65;;;;;;;26.04;49.94;98494.94;15280967;19;20018;-60
2022/07/13 19:45:30;;;;;;;1.77;0.30;;;;;;;25.94;48.76;98498.41;15281036;19;20010;-60
2022/07/13 19:50:37;;;;;;;3.20;0.38;;;;;;;25.80;49.17;98501.63;15277334;19;20037;-63
2022/07/13 19:55:46;;;;;;;9.75;0.68;;;;;;;25.67;48.51;98505.59;15278543;19;20085;-62
2022/07/13 20:00:55;;;;;;;2.63;0.40;;;;;;;25.63;48.42;98490.66;15252938;19;20030;-61
2022/07/13 20:06:02;;;;;;;10.30;0.60;;;;;;;25.54;48.12;98512.34;15267624;19;20013;-59
2022/07/13 20:11:14;;;;;;;;;;;;;;;25.44;48.48;98512.22;15276966;19;20365;-60
2022/07/13 20:16:21;;;;;;;2.38;0.40;;;;;;;25.41;48.54;98515.50;15279469;19;19989;-59
2022/07/13 20:21:27;;;;;;;3.35;0.45;;;;;;;25.33;48.44;98513.97;15277861;19;20007;-57
2022/07/13 20:26:38;;;;;;;1.05;0.40;;;;;;;25.21;48.76;98522.38;15278527;19;20006;-59
2022/07/13 20:31:45;;;;;;;3.97;0.35;;;;;;;25.17;48.92;98517.59;15250092;19;20365;-58
2022/07/13 20:36:51;;;;;;;3.10;0.30;;;;;;;25.09;48.09;98521.66;15269834;19;20018;-57
2022/07/13 20:42:02;;;;;;;0.55;0.25;;;;;;;25.00;48.90;98514.91;15267898;19;20014;-61
2022/07/13 20:47:07;;;;;;;3.05;0.30;;;;;;;24.92;49.03;98517.00;15276772;19;20017;-56
2022/07/13 20:52:13;;;;;;;0.88;0.25;;;;;;;24.82;48.74;98519.63;15257204;19;20120;-64
2022/07/13 20:57:21;;;;;;;0.40;0.25;;;;;;;24.74;48.91;98511.78;15276387;19;20373;-64
2022/07/13 21:02:26;;;;;;;0.25;0.25;;;;;;;24.69;48.62;98501.53;15274207;19;20043;-66
2022/07/13 21:07:31;;;;;;;0.35;0.20;;;;;;;24.64;48.64;98511.59;15271963;19;20011;-67
2022/07/13 21:12:39;;;;;;;0.30;0.20;;;;;;;24.65;48.34;98516.00;15258547;19;20712;-65
2022/07/13 21:17:47;;;;;;;0.73;0.32;;;;;;;24.66;48.66;98517.66;15271920;19;20017;-64
2022/07/13 21:22:55;;;;;;;1.20;0.40;;;;;;;24.57;48.56;98523.59;15270763;19;20018;-65
2022/07/13 21:28:04;;;;;;;0.88;0.20;;;;;;;24.49;48.82;98521.28;15269895;19;20011;-65
2022/07/13 21:33:09;;;;;;;0.60;0.30;;;;;;;24.45;48.76;98525.59;15270677;19;20622;-63
2022/07/13 21:38:15;;;;;;;0.73;0.35;;;;;;;24.38;49.60;98524.94;15273020;19;20452;-63
2022/07/13 21:43:22;;;;;;;1.88;0.22;;;;;;;24.32;49.77;98526.78;15259730;19;20043;-63
2022/07/13 21:48:27;;;;;;;1.30;0.22;;;;;;;24.28;49.19;98515.44;15270598;19;20018;-65
2022/07/13 21:53:34;;;;;;;0.75;0.20;;;;;;;24.18;49.63;98531.75;15270746;19;20503;-66
2022/07/13 21:58:41;;;;;;;1.85;0.30;;;;;;;24.09;49.95;98527.72;15274197;19;20020;-63
2022/07/13 22:03:46;;;;;;;2.05;0.20;;;;;;;24.00;50.31;98530.88;15279883;19;20022;-65
2022/07/13 22:08:51;;;;;;;0.10;0.10;;;;;;;23.92;51.08;98536.75;15288681;19;20010;-66
2022/07/13 22:14:26;;;;;;;0.30;0.20;;;;;;;23.80;51.35;98523.03;15281554;19;20014;-65
2022/07/13 22:20:01;;;;;;;0.30;0.22;;;;;;;23.72;52.03;98526.19;15282885;19;20014;-65
2022/07/13 22:25:36;;;;;;;0.38;0.22;;;;;;;23.65;52.25;98519.97;15287779;19;20082;-65
2022/07/13 22:31:11;;;;;;;0.30;0.20;;;;;;;23.47;53.37;98521.00;15284069;19;20027;-65
2022/07/13 22:36:46;;;;;;;0.28;0.28;;;;;;;23.36;53.61;98507.03;15288507;19;20415;-63
2022/07/13 22:42:21;;;;;;;1.40;0.35;;;;;;;23.24;54.41;98515.31;15283955;19;20006;-65
2022/07/13 22:47:56;;;;;;;3.72;0.32;;;;;;;23.10;55.39;98513.88;15275333;19;20014;-63
2022/07/13 22:53:31;;;;;;;0.77;0.22;;;;;;;23.02;56.31;98526.06;15284140;19;20115;-65
2022/07/13 22:59:06;;;;;;;1.67;0.20;;;;;;;22.88;57.04;98530.13;15287140;19;20006;-64
2022/07/13 23:04:41;;;;;;;2.17;0.30;;;;;;;22.73;58.05;98531.47;15286306;19;20373;-64
2022/07/13 23:10:17;;;;;;;1.35;0.30;;;;;;;22.60;59.68;98527.00;15283716;19;20018;-64
2022/07/13 23:15:52;;;;;;;0.60;0.30;;;;;;;22.52;60.15;98532.03;15278853;19;20010;-65
2022/07/13 23:21:27;;;;;;;0.30;0.30;;;;;;;22.46;60.80;98523.66;15271950;19;20015;-65
2022/07/13 23:27:02;;;;;;;1.33;0.30;;;;;;;22.40;62.53;98523.75;15283543;19;20007;-64
2022/07/13 23:32:12;;;;;;;0.63;0.30;;;;;;;22.34;63.27;98525.53;15281911;19;20002;-65
2022/07/13 23:37:17;;;;;;;0.67;0.33;;;;;;;22.23;64.94;98526.34;15281996;19;20590;-65
2022/07/13 23:42:22;;;;;;;0.45;0.30;;;;;;;22.16;65.93;98523.69;15281496;19;20018;-65
2022/07/13 23:47:30;;;;;;;1.85;0.40;;;;;;;22.06;67.14;98527.00;15280362;19;20123;-65
2022/07/13 23:52:35;;;;;;;0.40;0.20;;;;;;;21.95;68.01;98534.13;15269857;19;20377;-65
2022/07/13 23:57:40;;;;;;;1.05;0.35;;;;;;;21.94;68.32;98523.38;15283037;19;20014;-64
